Time;durP1;ratioP1;P1;durP2;ratioP2;P2;SDS_P1;SDS_P2;PMS_P1;PMS_P2;Temp;Humidity;BMP_temperature;BMP_pressure;BME280_temperature;BME280_humidity;BME280_pressure;Samples;Min_cycle;Max_cycle;Signal;HPM_P1;HPM_P2
2022/10/02 00:00:07;;;;;;;1.83;0.62;;;18.20;73.50;;;;;;2347860;54;20948;-76
2022/10/02 00:02:41;;;;;;;3.72;0.57;;;18.20;73.60;;;;;;2324419;53;20947;-77
2022/10/02 00:05:43;;;;;;;0.90;0.40;;;18.20;73.80;;;;;;2527923;52;21001;-75
2022/10/02 00:08:47;;;;;;;2.60;0.80;;;18.20;73.00;;;;;;2541091;52;21423;-76
2022/10/02 00:11:18;;;;;;;;;;;18.20;73.80;;;;;;2568279;52;21383;-75
2022/10/02 00:13:50;;;;;;;1.48;0.50;;;18.20;72.80;;;;;;2334260;54;20220;-76
2022/10/02 00:16:33;;;;;;;2.28;0.50;;;18.20;73.80;;;;;;2360534;53;22782;-77
2022/10/02 00:19:00;;;;;;;2.40;0.60;;;18.20;73.70;;;;;;2607853;52;20983;-75
2022/10/02 00:27:25;;;;;;;2.05;0.60;;;18.20;74.10;;;;;;2603040;52;21570;-75
2022/10/02 00:29:53;;;;;;;2.70;0.50;;;18.20;73.00;;;;;;2369683;53;21073;-75
2022/10/02 00:33:57;;;;;;;1.55;0.50;;;18.30;74.30;;;;;;2353710;53;20954;-75
2022/10/02 00:36:48;;;;;;;1.55;0.43;;;18.20;74.10;;;;;;2367136;53;21167;-75
2022/10/02 00:39:37;;;;;;;3.10;0.60;;;18.20;73.50;;;;;;2617902;52;21542;-77
2022/10/02 00:42:35;;;;;;;2.45;0.70;;;18.30;73.60;;;;;;2618691;52;21330;-77
2022/10/02 00:45:32;;;;;;;1.83;0.47;;;18.20;73.80;;;;;;2618205;52;21332;-77
2022/10/02 00:51:45;;;;;;;3.35;0.93;;;18.30;73.80;;;;;;2356011;53;21526;-75
2022/10/02 00:58:02;;;;;;;2.03;0.50;;;18.30;73.40;;;;;;2337713;54;21020;-75
2022/10/02 01:00:28;;;;;;;2.45;0.57;;;18.30;73.80;;;;;;2340207;53;21121;-77
2022/10/02 01:03:55;;;;;;;2.25;0.70;;;18.30;74.70;;;;;;2584119;52;21395;-75
2022/10/02 01:06:23;;;;;;;1.25;0.52;;;18.30;73.60;;;;;;2481877;52;21035;-76
2022/10/02 01:08:53;;;;;;;2.80;0.60;;;18.30;74.70;;;;;;2587806;52;20940;-75
2022/10/02 01:11:20;;;;;;;1.48;0.70;;;18.30;74.90;;;;;;2521171;52;21242;-78
2022/10/02 01:13:46;;;;;;;2.10;0.60;;;18.30;74.90;;;;;;2577088;53;21491;-76
2022/10/02 01:16:13;;;;;;;1.10;0.45;;;18.30;74.90;;;;;;2596264;52;21332;-75
2022/10/02 01:18:39;;;;;;;2.67;0.70;;;18.30;74.90;;;;;;2417089;53;20937;-75
2022/10/02 01:21:56;;;;;;;1.55;0.50;;;18.30;74.90;;;;;;2343100;53;21427;-78
2022/10/02 01:24:29;;;;;;;2.00;0.60;;;18.40;75.60;;;;;;2361344;53;21066;-76
2022/10/02 01:26:56;;;;;;;7.47;0.90;;;18.40;74.70;;;;;;2360771;53;20965;-74
2022/10/02 01:29:57;;;;;;;4.30;0.80;;;18.40;74.80;;;;;;2351400;53;20968;-76
2022/10/02 01:32:24;;;;;;;1.83;0.75;;;18.40;74.00;;;;;;2361530;53;21653;-77
2022/10/02 01:34:54;;;;;;;3.25;0.60;;;18.40;74.70;;;;;;2337509;54;20976;-78
2022/10/02 01:37:25;;;;;;;2.62;0.62;;;18.40;74.60;;;;;;2446037;52;21008;-75
2022/10/02 01:39:51;;;;;;;1.35;0.45;;;18.40;74.50;;;;;;2519019;52;21409;-75
2022/10/02 01:42:17;;;;;;;1.85;0.80;;;18.50;74.80;;;;;;2343905;53;21053;-75
2022/10/02 01:44:44;;;;;;;1.67;0.60;;;18.50;74.80;;;;;;2344133;53;20917;-76
2022/10/02 01:47:14;;;;;;;2.40;0.60;;;18.50;74.70;;;;;;2348472;53;21596;-75
2022/10/02 01:49:54;;;;;;;3.53;0.80;;;18.50;74.60;;;;;;2591504;52;21521;-75
2022/10/02 01:53:06;;;;;;;3.05;0.70;;;18.50;74.40;;;;;;2363543;53;20950;-77
2022/10/02 01:59:09;;;;;;;6.03;1.00;;;18.50;73.50;;;;;;2357128;53;21044;-75
2022/10/02 02:01:42;;;;;;;1.45;0.70;;;18.50;73.30;;;;;;2367435;53;20985;-75
2022/10/02 02:04:47;;;;;;;2.28;0.62;;;18.50;74.20;;;;;;2359460;53;20988;-75
2022/10/02 02:07:50;;;;;;;2.78;0.60;;;18.50;73.80;;;;;;2357448;54;21481;-77
2022/10/02 02:10:53;;;;;;;2.75;0.70;;;18.50;73.30;;;;;;2437289;52;20934;-77
2022/10/02 02:14:51;;;;;;;3.25;0.80;;;18.50;73.60;;;;;;2368397;53;20978;-75
2022/10/02 02:17:39;;;;;;;2.53;0.62;;;18.50;73.20;;;;;;2365007;53;20934;-78
2022/10/02 02:20:11;;;;;;;1.65;0.60;;;18.50;73.80;;;;;;2369906;53;21029;-75
2022/10/02 02:22:40;;;;;;;4.50;0.93;;;18.50;74.40;;;;;;2366622;53;21627;-75
2022/10/02 02:25:15;;;;;;;2.90;0.90;;;18.50;74.40;;;;;;2606649;52;23305;-75
2022/10/02 02:27:43;;;;;;;2.12;0.60;;;18.50;74.20;;;;;;2610242;52;21028;-76
2022/10/02 02:30:10;;;;;;;1.17;0.50;;;18.50;74.50;;;;;;2600145;52;21371;-75
2022/10/02 02:32:39;;;;;;;1.62;0.57;;;18.50;74.40;;;;;;2362790;53;21284;-75
2022/10/02 02:35:14;;;;;;;2.55;0.62;;;18.50;74.30;;;;;;2586978;52;21051;-75
2022/10/02 02:37:40;;;;;;;2.62;0.70;;;18.50;74.20;;;;;;2628378;52;21392;-75
2022/10/02 02:40:15;;;;;;;2.55;0.60;;;18.50;74.40;;;;;;2431060;52;21526;-75
2022/10/02 02:42:42;;;;;;;3.30;0.90;;;18.50;74.20;;;;;;2363196;53;21022;-75
2022/10/02 02:45:19;;;;;;;2.35;0.60;;;18.50;74.30;;;;;;2442132;52;20974;-76
2022/10/02 02:47:51;;;;;;;4.07;0.70;;;18.50;73.70;;;;;;2343367;54;21463;-75
2022/10/02 02:50:42;;;;;;;3.47;0.73;;;18.50;74.10;;;;;;2342793;53;20984;-75
2022/10/02 02:53:22;;;;;;;1.92;0.70;;;18.60;73.40;;;;;;2349430;53;20998;-75
2022/10/02 02:55:59;;;;;;;3.45;0.75;;;18.50;73.60;;;;;;2510166;53;21472;-76
2022/10/02 02:58:59;;;;;;;2.97;0.90;;;18.60;73.60;;;;;;2585825;52;20941;-77
2022/10/02 03:01:25;;;;;;;3.17;0.57;;;18.50;73.50;;;;;;2594821;52;21033;-76
2022/10/02 03:03:51;;;;;;;4.37;0.73;;;18.60;74.30;;;;;;2426862;52;20990;-75
2022/10/02 03:06:32;;;;;;;2.55;0.60;;;18.50;74.20;;;;;;2586296;52;21037;-75
2022/10/02 03:08:59;;;;;;;3.00;0.88;;;18.60;73.60;;;;;;2354049;53;21423;-75
2022/10/02 03:14:47;;;;;;;1.48;0.50;;;18.50;74.10;;;;;;2362220;53;21360;-78
2022/10/02 03:27:16;;;;;;;2.47;0.50;;;18.60;72.80;;;;;;2587985;52;21052;-76
2022/10/02 03:29:57;;;;;;;1.75;0.40;;;18.60;72.90;;;;;;2340985;53;21079;-75
2022/10/02 03:32:23;;;;;;;6.75;0.80;;;18.60;73.70;;;;;;2348176;53;20973;-75
2022/10/02 03:34:49;;;;;;;3.33;0.55;;;18.60;74.20;;;;;;2348059;53;21388;-75
2022/10/02 03:37:17;;;;;;;3.17;0.68;;;18.60;74.30;;;;;;2343740;53;20949;-76
2022/10/02 03:39:43;;;;;;;3.90;0.70;;;18.60;74.30;;;;;;2342452;53;20941;-76
2022/10/02 03:42:13;;;;;;;2.90;0.80;;;18.60;74.30;;;;;;2352128;53;21001;-75
2022/10/02 03:44:39;;;;;;;1.12;0.45;;;18.60;74.10;;;;;;2361543;53;21233;-75
2022/10/02 03:47:21;;;;;;;1.58;0.50;;;18.60;74.30;;;;;;2365773;53;20950;-76
2022/10/02 03:49:47;;;;;;;1.85;0.40;;;18.60;73.50;;;;;;2367974;53;20977;-77
2022/10/02 03:52:43;;;;;;;2.67;0.70;;;18.60;74.30;;;;;;2514360;52;20947;-75
2022/10/02 03:55:31;;;;;;;2.87;0.70;;;18.60;73.30;;;;;;2619738;52;20934;-75
2022/10/02 03:57:58;;;;;;;2.40;0.60;;;18.60;73.20;;;;;;2590206;52;21001;-75
2022/10/02 04:00:28;;;;;;;1.87;0.65;;;18.60;74.20;;;;;;2403934;53;20911;-74
2022/10/02 04:03:00;;;;;;;2.42;0.50;;;18.60;74.00;;;;;;2370123;53;20957;-75
2022/10/02 04:05:46;;;;;;;1.98;0.52;;;18.60;74.00;;;;;;2611859;52;20973;-78
2022/10/02 04:08:24;;;;;;;4.87;0.93;;;18.70;73.30;;;;;;2369091;53;21556;-76
2022/10/02 04:11:09;;;;;;;3.50;0.70;;;18.70;74.00;;;;;;2344263;53;21007;-76
2022/10/02 04:13:46;;;;;;;2.35;0.60;;;18.70;73.50;;;;;;2342832;53;20949;-76
2022/10/02 04:16:41;;;;;;;1.92;0.50;;;18.70;74.20;;;;;;2514115;52;21615;-75
2022/10/02 04:19:15;;;;;;;2.50;0.50;;;18.70;73.40;;;;;;2365724;53;21482;-75
2022/10/02 04:22:18;;;;;;;2.95;0.70;;;18.70;73.90;;;;;;2371815;53;20993;-77
2022/10/02 04:25:32;;;;;;;4.22;0.60;;;18.70;73.50;;;;;;2614315;52;20902;-75
2022/10/02 04:28:07;;;;;;;4.47;0.70;;;18.70;73.60;;;;;;2596822;53;20942;-79
2022/10/02 04:30:33;;;;;;;1.52;0.50;;;18.80;74.20;;;;;;2599974;52;21016;-75
2022/10/02 04:33:17;;;;;;;2.28;0.65;;;18.80;74.30;;;;;;2594926;53;21052;-75
2022/10/02 04:36:10;;;;;;;1.67;0.60;;;18.80;73.50;;;;;;2603387;52;21204;-77
2022/10/02 04:45:33;;;;;;;4.05;0.80;;;18.80;73.80;;;;;;2592975;52;20934;-74
2022/10/02 04:48:38;;;;;;;1.45;0.50;;;18.80;73.80;;;;;;2367508;53;20990;-75
2022/10/02 04:51:30;;;;;;;1.35;0.40;;;18.90;73.60;;;;;;2355758;53;21473;-75
2022/10/02 04:57:32;;;;;;;1.77;0.60;;;18.90;74.10;;;;;;2365481;53;21020;-76
2022/10/02 05:00:16;;;;;;;1.30;0.50;;;18.80;74.20;;;;;;2614599;52;21043;-77
2022/10/02 05:05:55;;;;;;;1.48;0.43;;;18.90;73.90;;;;;;2605284;52;20989;-74
2022/10/02 05:08:58;;;;;;;3.42;0.80;;;18.90;73.50;;;;;;2365634;53;21024;-75
2022/10/02 05:11:47;;;;;;;2.20;0.60;;;18.90;73.90;;;;;;2557100;52;20978;-76
2022/10/02 05:14:36;;;;;;;1.87;0.62;;;18.90;74.10;;;;;;2368997;53;21327;-77
2022/10/02 05:20:35;;;;;;;1.02;0.43;;;18.90;74.60;;;;;;2409880;52;20917;-77
2022/10/02 05:23:39;;;;;;;2.05;0.45;;;19.00;73.80;;;;;;2347636;53;21826;-77
2022/10/02 05:26:26;;;;;;;2.28;0.70;;;19.00;74.20;;;;;;2372059;53;21006;-76
2022/10/02 05:30:17;;;;;;;1.52;0.50;;;19.00;74.50;;;;;;2349004;53;21111;-75
2022/10/02 05:36:07;;;;;;;1.92;0.70;;;19.00;73.60;;;;;;2368117;53;21337;-76
2022/10/02 05:39:13;;;;;;;1.83;0.68;;;19.10;74.50;;;;;;2414816;53;21085;-75
2022/10/02 05:42:52;;;;;;;1.70;0.50;;;19.10;74.00;;;;;;2607294;52;20929;-77
2022/10/02 05:45:31;;;;;;;0.98;0.50;;;19.10;74.50;;;;;;2362499;53;21583;-76
2022/10/02 05:48:25;;;;;;;2.37;0.50;;;19.10;74.30;;;;;;2366409;53;20921;-77
2022/10/02 05:50:54;;;;;;;3.17;0.88;;;19.10;75.40;;;;;;2606877;52;21470;-75
2022/10/02 05:53:37;;;;;;;2.35;0.50;;;19.10;74.80;;;;;;2361821;53;20983;-75
2022/10/02 05:56:21;;;;;;;2.72;0.60;;;19.10;74.30;;;;;;2618722;52;20926;-75
2022/10/02 05:58:53;;;;;;;1.87;0.62;;;19.10;74.50;;;;;;2600551;52;20925;-76
2022/10/02 06:01:26;;;;;;;1.50;0.60;;;19.10;74.80;;;;;;2365033;53;20973;-75
2022/10/02 06:04:53;;;;;;;2.33;0.70;;;19.10;74.70;;;;;;2485780;52;21037;-76
2022/10/02 06:07:20;;;;;;;2.00;0.60;;;19.20;74.00;;;;;;2361156;53;21012;-76
2022/10/02 06:09:48;;;;;;;3.00;0.80;;;19.20;75.10;;;;;;2619182;52;20950;-75
2022/10/02 06:12:54;;;;;;;2.37;0.70;;;19.20;75.10;;;;;;2350016;53;21309;-77
2022/10/02 06:16:00;;;;;;;1.80;0.52;;;19.20;74.00;;;;;;2611432;52;21808;-75
2022/10/02 06:18:28;;;;;;;3.22;0.85;;;19.30;74.20;;;;;;2364153;53;21348;-78
2022/10/02 06:20:57;;;;;;;1.65;0.68;;;19.30;75.20;;;;;;2362028;53;21021;-76
2022/10/02 06:23:45;;;;;;;1.52;0.50;;;19.30;75.20;;;;;;2368322;53;21011;-75
2022/10/02 06:26:59;;;;;;;3.40;0.70;;;19.30;74.50;;;;;;2372339;53;21490;-76
2022/10/02 06:29:38;;;;;;;2.33;0.57;;;19.30;74.20;;;;;;2365976;53;21469;-76
2022/10/02 06:32:52;;;;;;;2.80;0.60;;;19.40;75.10;;;;;;2363586;53;21343;-76
2022/10/02 06:35:26;;;;;;;3.03;0.70;;;19.40;74.30;;;;;;2372010;53;21553;-76
2022/10/02 06:38:01;;;;;;;1.92;0.80;;;19.40;75.30;;;;;;2365984;53;21752;-75
2022/10/02 06:40:58;;;;;;;1.48;0.60;;;19.50;75.20;;;;;;2358847;53;21010;-75
2022/10/02 06:45:05;;;;;;;1.40;0.60;;;19.50;75.00;;;;;;2362440;53;21048;-75
2022/10/02 06:47:56;;;;;;;1.20;0.45;;;19.50;75.30;;;;;;2360421;53;21050;-77
2022/10/02 06:51:33;;;;;;;1.52;0.60;;;19.60;74.90;;;;;;2450896;52;21006;-76
2022/10/02 06:54:36;;;;;;;1.27;0.60;;;19.60;74.60;;;;;;2356686;53;20991;-75
2022/10/02 06:59:01;;;;;;;0.88;0.40;;;19.70;75.00;;;;;;2369411;53;20938;-76
2022/10/02 07:01:58;;;;;;;2.00;0.52;;;19.70;75.00;;;;;;2465158;52;20910;-76
2022/10/02 07:08:53;;;;;;;1.15;0.40;;;19.70;75.10;;;;;;2363956;53;20905;-76
2022/10/02 07:12:31;;;;;;;1.52;0.50;;;19.80;75.20;;;;;;2373356;53;20997;-75
2022/10/02 07:15:19;;;;;;;0.77;0.40;;;19.80;75.20;;;;;;2369714;53;20934;-75
2022/10/02 07:19:23;;;;;;;1.85;0.40;;;19.80;74.80;;;;;;2358524;53;21418;-74
2022/10/02 07:25:15;;;;;;;1.58;0.43;;;19.90;74.50;;;;;;2369745;53;20946;-75
2022/10/02 07:32:50;;;;;;;1.50;0.62;;;19.90;74.50;;;;;;2364551;53;20996;-78
2022/10/02 07:40:41;;;;;;;1.27;0.40;;;20.00;74.50;;;;;;2371353;53;21066;-77
2022/10/02 07:43:44;;;;;;;0.80;0.40;;;20.00;74.80;;;;;;2372970;53;21061;-75
2022/10/02 07:46:39;;;;;;;1.33;0.40;;;20.10;74.90;;;;;;2368325;53;20957;-76
2022/10/02 07:51:01;;;;;;;1.55;0.65;;;20.10;75.40;;;;;;2451935;53;21523;-75
2022/10/02 07:53:48;;;;;;;1.45;0.60;;;20.10;74.60;;;;;;2440029;52;21009;-75
2022/10/02 07:56:18;;;;;;;1.85;0.60;;;20.10;74.90;;;;;;2370774;53;21572;-76
2022/10/02 07:58:51;;;;;;;0.98;0.50;;;20.10;75.90;;;;;;2368238;53;21388;-74
2022/10/02 08:01:23;;;;;;;2.22;0.52;;;20.10;75.70;;;;;;2363566;53;21380;-75
2022/10/02 08:04:17;;;;;;;1.27;0.55;;;20.20;75.80;;;;;;2369590;53;21444;-75
2022/10/02 08:06:45;;;;;;;1.73;0.50;;;20.20;75.50;;;;;;2363664;53;21068;-77
2022/10/02 08:09:19;;;;;;;1.12;0.37;;;20.20;75.90;;;;;;2397866;52;21005;-77
2022/10/02 13:47:44;;;;;;;0.52;0.30;;;21.50;78.00;;;;;;2363834;53;23016;-76
2022/10/02 13:50:27;;;;;;;0.52;0.25;;;21.50;78.20;;;;;;2317522;53;22184;-77
2022/10/02 13:59:41;;;;;;;;;;;21.60;78.40;;;;;;2311473;54;20974;-76
2022/10/02 14:04:56;;;;;;;2.87;0.32;;;21.60;77.70;;;;;;2468874;54;20159;-78
2022/10/02 14:07:53;;;;;;;0.85;0.35;;;21.70;77.20;;;;;;2459395;53;21024;-77
2022/10/02 14:11:47;;;;;;;0.47;0.25;;;21.60;77.50;;;;;;2329282;56;21004;-77
2022/10/02 14:15:57;;;;;;;0.90;0.40;;;21.70;78.20;;;;;;2320862;53;21406;-81
2022/10/02 14:20:09;;;;;;;1.08;0.40;;;21.60;78.00;;;;;;2339838;54;21088;-78
2022/10/02 14:23:11;;;;;;;1.10;0.32;;;21.60;77.90;;;;;;2325128;54;20980;-79
2022/10/02 14:25:53;;;;;;;1.35;0.43;;;21.60;77.20;;;;;;2329464;54;20977;-78
2022/10/02 14:29:06;;;;;;;1.65;0.50;;;21.70;77.00;;;;;;2329013;56;28327;-77
2022/10/02 14:31:50;;;;;;;2.00;0.75;;;21.60;75.90;;;;;;2352026;53;21366;-79
2022/10/02 14:34:37;;;;;;;1.75;0.43;;;21.60;76.50;;;;;;2394392;53;21935;-76
2022/10/02 14:39:37;;;;;;;1.30;0.57;;;21.50;75.30;;;;;;2450379;53;20931;-77
2022/10/02 14:42:26;;;;;;;2.37;0.50;;;21.40;74.70;;;;;;2329142;56;21576;-78
2022/10/02 14:45:17;;;;;;;1.45;0.40;;;21.30;74.90;;;;;;2329930;54;20957;-76
2022/10/02 14:47:56;;;;;;;1.02;0.40;;;21.30;75.30;;;;;;2329702;54;21798;-76
2022/10/02 14:51:27;;;;;;;0.98;0.30;;;21.20;75.20;;;;;;2329774;56;20991;-77
2022/10/02 14:57:07;;;;;;;0.28;0.20;;;21.10;74.50;;;;;;2329197;54;20957;-76
2022/10/02 15:00:04;;;;;;;1.40;0.40;;;21.00;74.60;;;;;;2571974;53;20941;-77
2022/10/02 15:03:20;;;;;;;1.35;0.70;;;20.90;74.90;;;;;;2328371;54;20997;-78
2022/10/02 15:08:46;;;;;;;3.10;0.50;;;20.80;75.10;;;;;;2328523;56;21771;-77
2022/10/02 15:11:38;;;;;;;0.88;0.30;;;20.80;75.00;;;;;;2566551;53;20940;-77
2022/10/02 15:14:15;;;;;;;1.37;0.40;;;20.70;75.60;;;;;;2572365;53;21033;-77
2022/10/02 15:19:52;;;;;;;0.95;0.40;;;20.60;75.40;;;;;;2334760;53;21051;-78
2022/10/02 15:22:26;;;;;;;1.17;0.30;;;20.50;75.70;;;;;;2324771;53;21000;-77
2022/10/02 15:24:57;;;;;;;1.65;0.47;;;20.50;75.90;;;;;;2326502;53;21423;-77
2022/10/02 15:27:44;;;;;;;1.42;0.50;;;20.40;75.70;;;;;;2329284;53;21386;-77
2022/10/02 15:31:40;;;;;;;1.52;0.50;;;20.40;75.80;;;;;;2326721;53;21044;-77
2022/10/02 15:34:39;;;;;;;1.60;0.57;;;20.40;75.20;;;;;;2328704;56;20932;-76
2022/10/02 15:38:32;;;;;;;1.50;0.40;;;20.30;75.40;;;;;;2494778;53;21499;-77
2022/10/02 15:44:23;;;;;;;1.97;0.47;;;20.30;75.10;;;;;;2426729;53;20980;-77
2022/10/02 15:47:26;;;;;;;1.33;0.40;;;20.20;75.10;;;;;;2506423;53;21490;-77
2022/10/02 15:50:03;;;;;;;;;;;20.20;75.40;;;;;;2331125;53;21000;-78
2022/10/02 15:57:06;;;;;;;0.82;0.50;;;20.20;75.20;;;;;;2567182;53;20128;-77
2022/10/02 15:59:51;;;;;;;0.43;0.20;;;20.10;75.20;;;;;;2328402;56;21342;-77
2022/10/02 16:03:10;;;;;;;1.23;0.45;;;20.00;76.20;;;;;;2356026;53;21523;-79
2022/10/02 16:05:54;;;;;;;0.62;0.30;;;20.00;76.50;;;;;;2328870;55;20932;-77
2022/10/02 16:12:03;;;;;;;0.70;0.40;;;20.00;76.60;;;;;;2327582;54;20937;-80
2022/10/02 16:15:01;;;;;;;1.40;0.50;;;20.00;76.40;;;;;;2328444;56;20956;-77
2022/10/02 16:19:14;;;;;;;1.20;0.40;;;20.00;77.10;;;;;;2408773;53;20997;-78
2022/10/02 16:23:18;;;;;;;2.55;0.50;;;20.00;76.80;;;;;;2328795;54;21014;-78
2022/10/02 16:26:10;;;;;;;0.82;0.30;;;20.00;76.80;;;;;;2482160;53;21068;-80
2022/10/02 16:30:33;;;;;;;0.88;0.35;;;20.00;77.50;;;;;;2327867;54;21029;-81
2022/10/02 16:34:37;;;;;;;0.77;0.32;;;20.00;77.40;;;;;;2340675;53;20996;-77
2022/10/02 16:37:28;;;;;;;2.47;0.57;;;20.00;77.10;;;;;;2333472;53;20975;-77
2022/10/02 16:43:47;;;;;;;0.50;0.30;;;20.00;77.40;;;;;;2323622;53;20884;-76
2022/10/02 16:47:28;;;;;;;0.95;0.47;;;20.00;77.20;;;;;;2305079;55;20905;-77
2022/10/02 16:50:22;;;;;;;1.20;0.47;;;20.00;76.90;;;;;;2570841;53;21556;-78
2022/10/02 16:53:10;;;;;;;1.10;0.50;;;20.00;77.50;;;;;;2419653;53;21449;-78
2022/10/02 16:56:01;;;;;;;1.55;0.57;;;20.00;77.30;;;;;;2442395;53;21462;-78
2022/10/02 16:58:34;;;;;;;1.33;0.50;;;20.00;77.60;;;;;;2328504;56;21375;-76
2022/10/02 17:01:45;;;;;;;1.87;0.60;;;19.90;77.70;;;;;;2441001;53;20952;-80
2022/10/02 17:06:00;;;;;;;1.55;0.57;;;20.00;77.20;;;;;;2570504;53;21540;-77
2022/10/02 17:08:40;;;;;;;1.50;0.50;;;19.90;77.80;;;;;;2413465;53;21493;-80
2022/10/02 17:18:39;;;;;;;2.72;0.50;;;20.00;78.20;;;;;;2321616;54;20985;-78
2022/10/02 17:21:20;;;;;;;1.10;0.40;;;20.00;77.10;;;;;;2500957;53;21015;-79
2022/10/02 17:25:25;;;;;;;0.62;0.30;;;19.90;75.60;;;;;;2386192;53;21443;-80
2022/10/02 17:28:01;;;;;;;1.90;0.40;;;19.80;74.90;;;;;;2367598;53;21439;-79
2022/10/02 17:30:29;;;;;;;1.73;0.25;;;19.70;74.30;;;;;;2332346;53;20932;-80
2022/10/02 17:33:14;;;;;;;0.20;0.10;;;19.50;73.80;;;;;;2455774;53;21000;-81
2022/10/02 17:35:55;;;;;;;0.50;0.20;;;19.40;73.20;;;;;;2328023;54;21378;-80
2022/10/02 17:40:00;;;;;;;0.50;0.20;;;19.40;73.20;;;;;;2328691;54;21310;-83
2022/10/02 17:43:01;;;;;;;0.82;0.20;;;19.20;72.90;;;;;;2402249;53;21585;-80
2022/10/02 17:45:41;;;;;;;0.37;0.17;;;19.10;73.20;;;;;;2505811;53;20956;-82
2022/10/02 17:51:03;;;;;;;0.62;0.20;;;18.90;73.50;;;;;;2367125;53;21036;-82
2022/10/02 17:57:59;;;;;;;;;;;18.70;74.10;;;;;;2390982;53;21028;-80
2022/10/02 18:00:26;;;;;;;0.25;0.10;;;18.70;73.80;;;;;;2504406;53;20547;-79
2022/10/02 18:03:16;;;;;;;1.12;0.40;;;18.50;74.40;;;;;;2323693;55;20957;-81
2022/10/02 18:07:14;;;;;;;0.52;0.30;;;18.50;74.90;;;;;;2463515;53;21292;-81
2022/10/02 18:13:31;;;;;;;0.85;0.40;;;18.40;74.30;;;;;;2375603;53;21766;-80
2022/10/02 18:16:28;;;;;;;0.35;0.30;;;18.20;73.90;;;;;;2455010;53;21944;-82
2022/10/02 18:20:59;;;;;;;0.30;0.28;;;18.20;74.50;;;;;;2367915;53;21111;-80
2022/10/02 18:30:32;;;;;;;0.70;0.30;;;18.10;75.00;;;;;;2329008;54;21044;-81
2022/10/02 18:33:25;;;;;;;0.37;0.20;;;18.00;75.40;;;;;;2329010;54;21041;-79
2022/10/02 18:36:34;;;;;;;0.52;0.20;;;17.90;75.60;;;;;;2372669;53;20960;-80
2022/10/02 18:40:14;;;;;;;4.12;2.12;;;17.90;75.80;;;;;;2345263;53;20948;-80
2022/10/02 18:49:55;;;;;;;3.92;2.10;;;17.90;76.20;;;;;;2323314;53;21015;-79
2022/10/02 18:52:53;;;;;;;4.90;1.55;;;17.80;76.00;;;;;;2328883;54;21056;-79
2022/10/02 18:55:42;;;;;;;3.03;1.60;;;17.90;76.20;;;;;;2329542;55;21016;-79
2022/10/02 19:00:27;;;;;;;2.97;1.50;;;17.80;76.60;;;;;;2495183;53;20964;-79
2022/10/02 19:05:49;;;;;;;2.72;1.00;;;17.90;76.20;;;;;;2328674;54;20957;-80
2022/10/02 19:09:03;;;;;;;2.53;0.93;;;17.90;76.30;;;;;;2357879;53;21067;-79
2022/10/02 19:11:31;;;;;;;2.33;0.98;;;17.90;77.10;;;;;;2328967;54;20997;-79
2022/10/02 19:14:01;;;;;;;3.75;1.52;;;17.90;77.20;;;;;;2513624;53;20924;-79
2022/10/02 19:16:28;;;;;;;3.08;1.40;;;17.90;77.30;;;;;;2339503;53;21894;-80
2022/10/02 19:19:18;;;;;;;2.67;1.17;;;17.90;77.10;;;;;;2328106;53;21940;-80
2022/10/02 19:21:45;;;;;;;1.45;0.60;;;17.90;76.60;;;;;;2392251;53;20980;-79
2022/10/02 19:24:14;;;;;;;1.33;0.60;;;17.80;77.60;;;;;;2328088;55;21056;-81
2022/10/02 19:26:44;;;;;;;1.15;0.50;;;17.80;77.00;;;;;;2359853;53;21019;-79
2022/10/02 19:29:39;;;;;;;1.17;0.55;;;17.80;77.10;;;;;;2326040;53;21815;-79
2022/10/02 19:32:28;;;;;;;1.52;0.60;;;17.80;76.80;;;;;;2329526;54;21102;-80
2022/10/02 19:35:06;;;;;;;1.10;0.50;;;17.90;76.90;;;;;;2328149;53;21069;-80
2022/10/02 19:37:32;;;;;;;1.73;0.80;;;17.80;76.80;;;;;;2476269;53;20951;-80
2022/10/02 19:40:00;;;;;;;1.52;0.70;;;17.80;77.00;;;;;;2345883;53;21036;-80
2022/10/02 19:42:28;;;;;;;1.15;0.50;;;17.80;76.90;;;;;;2342055;54;20887;-79
2022/10/02 19:45:01;;;;;;;1.52;0.57;;;17.80;77.10;;;;;;2383452;53;20971;-80
2022/10/02 19:47:38;;;;;;;1.62;0.52;;;17.80;77.10;;;;;;2337187;55;21365;-80
2022/10/02 19:50:06;;;;;;;1.40;0.60;;;17.80;76.90;;;;;;2358683;53;21722;-82
2022/10/02 19:52:58;;;;;;;1.10;0.60;;;17.80;77.00;;;;;;2364527;53;20990;-80
2022/10/02 19:55:30;;;;;;;1.15;0.60;;;17.80;76.70;;;;;;2337743;54;21002;-81
2022/10/02 19:58:05;;;;;;;1.48;0.77;;;17.90;77.00;;;;;;2369794;53;21062;-80
2022/10/02 20:00:31;;;;;;;1.83;0.80;;;17.80;76.90;;;;;;2336344;54;20914;-79
2022/10/02 20:03:00;;;;;;;1.30;0.70;;;17.80;77.10;;;;;;2344175;53;20950;-80
2022/10/02 20:05:28;;;;;;;2.00;0.95;;;17.80;77.20;;;;;;2338068;53;20960;-79
2022/10/02 20:07:59;;;;;;;1.70;0.80;;;17.80;77.20;;;;;;2354417;53;20926;-79
2022/10/02 20:10:34;;;;;;;1.70;0.80;;;17.80;77.10;;;;;;2506074;53;21001;-80
2022/10/02 20:13:20;;;;;;;1.73;0.80;;;17.80;77.20;;;;;;2349044;53;21011;-80
2022/10/02 20:19:24;;;;;;;2.80;1.05;;;17.90;77.30;;;;;;2366496;53;20939;-80
2022/10/02 20:21:54;;;;;;;1.90;0.90;;;17.80;77.30;;;;;;2340052;54;20902;-80
2022/10/02 20:25:27;;;;;;;2.42;1.15;;;17.90;77.50;;;;;;2339759;53;21010;-81
2022/10/02 20:31:26;;;;;;;;;;;17.90;77.30;;;;;;2339794;54;21565;-80
2022/10/02 20:33:54;;;;;;;1.90;0.90;;;17.90;76.50;;;;;;2355369;53;20075;-81
2022/10/02 20:36:29;;;;;;;1.92;0.98;;;17.90;76.80;;;;;;2340743;53;20951;-80
2022/10/02 20:39:10;;;;;;;1.95;1.00;;;17.90;76.80;;;;;;2369825;53;20951;-80
2022/10/02 20:42:18;;;;;;;2.40;1.02;;;17.90;76.80;;;;;;2337693;55;20990;-79
2022/10/02 20:44:45;;;;;;;3.40;1.15;;;17.80;76.60;;;;;;2387880;53;21306;-80
2022/10/02 20:50:08;;;;;;;2.40;1.00;;;17.80;76.70;;;;;;2338190;54;20935;-80
2022/10/02 20:53:07;;;;;;;1.83;0.80;;;17.80;76.10;;;;;;2408148;53;20920;-78
2022/10/02 21:00:58;;;;;;;3.90;1.02;;;17.80;76.10;;;;;;2358996;53;20943;-79
2022/10/02 21:04:15;;;;;;;1.48;0.68;;;17.70;75.60;;;;;;2477942;53;20975;-80
2022/10/02 21:08:12;;;;;;;2.80;0.85;;;17.70;75.80;;;;;;2338502;54;20959;-80
2022/10/02 21:11:20;;;;;;;2.90;1.17;;;17.60;75.50;;;;;;2361218;53;20975;-80
2022/10/02 21:15:35;;;;;;;2.87;1.10;;;17.60;75.90;;;;;;2493318;53;20896;-82
2022/10/02 21:19:03;;;;;;;1.52;0.62;;;17.60;75.70;;;;;;2391768;53;21480;-81
2022/10/02 21:28:34;;;;;;;1.60;0.77;;;17.50;76.10;;;;;;2526791;53;20907;-80
2022/10/02 21:32:01;;;;;;;1.37;0.68;;;17.50;75.90;;;;;;2524105;53;21468;-79
2022/10/02 21:35:12;;;;;;;1.60;0.80;;;17.50;76.10;;;;;;2342972;54;21043;-82
2022/10/02 21:38:12;;;;;;;1.87;0.85;;;17.50;76.40;;;;;;2337033;54;20963;-82
2022/10/02 21:41:39;;;;;;;1.85;0.85;;;17.50;76.70;;;;;;2363779;53;20943;-78
2022/10/02 21:45:51;;;;;;;2.03;1.02;;;17.50;76.80;;;;;;2409203;53;20919;-80
2022/10/02 21:51:59;;;;;;;1.98;1.00;;;17.50;76.40;;;;;;2335869;54;21396;-80
2022/10/02 21:57:54;;;;;;;2.20;1.10;;;17.50;76.40;;;;;;2359875;53;20963;-78
2022/10/02 22:00:22;;;;;;;2.17;1.05;;;17.50;76.70;;;;;;2327570;54;21012;-80
2022/10/02 22:03:48;;;;;;;2.42;1.48;;;17.50;77.10;;;;;;2540900;52;21397;-79
2022/10/02 22:07:22;;;;;;;2.53;1.40;;;17.50;77.00;;;;;;2338594;55;21270;-80
2022/10/02 22:13:26;;;;;;;2.83;1.65;;;17.40;76.70;;;;;;2316483;54;21401;-79
2022/10/02 22:17:47;;;;;;;3.28;1.48;;;17.50;77.40;;;;;;2340022;54;21511;-80
2022/10/02 22:20:42;;;;;;;2.85;1.30;;;17.50;76.80;;;;;;2339226;53;20939;-79
2022/10/02 22:25:00;;;;;;;3.08;1.62;;;17.50;77.10;;;;;;2336231;54;21022;-80
2022/10/02 22:28:10;;;;;;;3.00;1.75;;;17.50;77.20;;;;;;2335755;54;21431;-80
2022/10/02 22:44:11;;;;;;;2.60;1.50;;;17.60;77.30;;;;;;2334608;54;21082;-80
2022/10/02 22:47:07;;;;;;;1.73;0.90;;;17.60;76.40;;;;;;2312618;54;21019;-82
2022/10/02 22:49:47;;;;;;;2.70;1.50;;;17.60;76.90;;;;;;2393698;53;21920;-81
2022/10/02 22:52:46;;;;;;;2.20;1.12;;;17.60;77.30;;;;;;2510213;53;21564;-80
2022/10/02 22:55:32;;;;;;;2.58;1.35;;;17.60;77.40;;;;;;2474606;53;21486;-80
2022/10/02 22:58:15;;;;;;;2.75;1.33;;;17.60;77.30;;;;;;2343979;54;21024;-80
2022/10/02 23:01:12;;;;;;;2.62;1.45;;;17.60;77.30;;;;;;2434763;53;21680;-79
2022/10/02 23:03:53;;;;;;;2.75;1.67;;;17.60;77.10;;;;;;2339032;53;21894;-79
2022/10/02 23:07:45;;;;;;;2.97;1.40;;;17.60;77.40;;;;;;2416716;53;21207;-80
2022/10/02 23:11:29;;;;;;;3.60;1.60;;;17.60;76.70;;;;;;2338626;53;21009;-80
2022/10/02 23:14:35;;;;;;;2.92;1.52;;;17.60;77.00;;;;;;2338434;54;21500;-79
2022/10/02 23:17:10;;;;;;;2.50;1.12;;;17.60;77.30;;;;;;2334161;54;21528;-79
2022/10/02 23:21:43;;;;;;;3.00;1.45;;;17.60;77.20;;;;;;2392766;53;21297;-79
2022/10/02 23:27:24;;;;;;;3.55;1.50;;;17.60;76.70;;;;;;2335218;54;20984;-80
2022/10/02 23:30:09;;;;;;;2.65;1.48;;;17.60;76.40;;;;;;2336339;53;21084;-80
2022/10/02 23:32:55;;;;;;;2.33;1.20;;;17.60;76.80;;;;;;2448925;53;21263;-80
2022/10/02 23:38:57;;;;;;;2.70;1.55;;;17.60;76.80;;;;;;2406777;53;21044;-80
2022/10/02 23:46:37;;;;;;;3.30;1.73;;;17.60;77.00;;;;;;2338069;54;21006;-82
2022/10/02 23:49:03;;;;;;;3.12;1.80;;;17.60;76.60;;;;;;2504315;53;21015;-80